Аэропорт: Толмачёво. Новосибирск

ICAO: UNNT

METAR:
2024-05-18 16:30:00
UNNT 181630Z 16003MPS CAVOK 17/04 Q1007 R25/090070 R16/////// NOSIG RMK QFE745/0994
TAF:
2024-05-18 14:00:00
TAF UNNT 181400Z 1815/1915 18003G08MPS 8000 SCT040CB TX19/1815Z TN11/1823Z 
  TEMPO 1903/1912 -SHRA BKN016CB 
  BECMG 1904/1907 01005G10MPS